sensor_id;sensor_type;location;lat;lon;timestamp;pressure;altitude;pressure_sealevel;temperature;humidity
75867;BME280;64513;56.258;43.980;2022-12-20T00:01:30;100355.73;;;0.32;58.74
75867;BME280;64513;56.258;43.980;2022-12-20T00:03:57;100361.55;;;0.34;58.78
75867;BME280;64513;56.258;43.980;2022-12-20T00:06:23;100355.16;;;0.37;58.84
75867;BME280;64513;56.258;43.980;2022-12-20T00:11:33;100351.17;;;0.41;58.96
75867;BME280;64513;56.258;43.980;2022-12-20T00:13:58;100352.39;;;0.45;58.94
75867;BME280;64513;56.258;43.980;2022-12-20T00:16:24;100348.80;;;0.46;59.03
75867;BME280;64513;56.258;43.980;2022-12-20T00:19:09;100352.78;;;0.48;59.10
75867;BME280;64513;56.258;43.980;2022-12-20T00:21:34;100350.79;;;0.50;59.16
75867;BME280;64513;56.258;43.980;2022-12-20T00:23:59;100345.58;;;0.50;59.26
75867;BME280;64513;56.258;43.980;2022-12-20T00:26:26;100349.80;;;0.51;59.33
75867;BME280;64513;56.258;43.980;2022-12-20T00:28:50;100343.40;;;0.54;59.39
75867;BME280;64513;56.258;43.980;2022-12-20T00:31:17;100338.80;;;0.56;59.46
75867;BME280;64513;56.258;43.980;2022-12-20T00:33:44;100341.02;;;0.59;59.51
75867;BME280;64513;56.258;43.980;2022-12-20T00:36:09;100341.44;;;0.62;59.57
75867;BME280;64513;56.258;43.980;2022-12-20T00:38:33;100340.41;;;0.63;59.60
75867;BME280;64513;56.258;43.980;2022-12-20T00:41:19;100334.02;;;0.66;59.65
75867;BME280;64513;56.258;43.980;2022-12-20T00:43:44;100337.22;;;0.68;59.70
75867;BME280;64513;56.258;43.980;2022-12-20T00:46:10;100337.83;;;0.70;59.75
75867;BME280;64513;56.258;43.980;2022-12-20T00:48:35;100338.44;;;0.72;59.81
75867;BME280;64513;56.258;43.980;2022-12-20T00:51:02;100344.25;;;0.74;59.86
75867;BME280;64513;56.258;43.980;2022-12-20T00:53:27;100339.66;;;0.76;59.96
75867;BME280;64513;56.258;43.980;2022-12-20T00:55:51;100333.25;;;0.79;60.03
75867;BME280;64513;56.258;43.980;2022-12-20T00:58:16;100337.23;;;0.81;60.01
75867;BME280;64513;56.258;43.980;2022-12-20T01:00:40;100343.66;;;0.85;60.11
75867;BME280;64513;56.258;43.980;2022-12-20T01:03:04;100338.86;;;0.89;60.14
75867;BME280;64513;56.258;43.980;2022-12-20T01:05:29;100328.86;;;0.92;60.12
75867;BME280;64513;56.258;43.980;2022-12-20T01:07:53;100341.45;;;0.95;60.19
75867;BME280;64513;56.258;43.980;2022-12-20T01:10:17;100343.06;;;0.96;60.26
75867;BME280;64513;56.258;43.980;2022-12-20T01:12:41;100338.27;;;1.00;60.33
75867;BME280;64513;56.258;43.980;2022-12-20T01:15:07;100338.07;;;1.01;60.40
75867;BME280;64513;56.258;43.980;2022-12-20T01:17:31;100340.28;;;1.04;60.43
75867;BME280;64513;56.258;43.980;2022-12-20T01:19:55;100336.67;;;1.05;60.52
75867;BME280;64513;56.258;43.980;2022-12-20T01:22:19;100327.67;;;1.08;60.54
75867;BME280;64513;56.258;43.980;2022-12-20T01:24:43;100342.06;;;1.11;60.56
75867;BME280;64513;56.258;43.980;2022-12-20T01:27:07;100329.65;;;1.13;60.63
75867;BME280;64513;56.258;43.980;2022-12-20T01:29:31;100332.86;;;1.15;60.63
75867;BME280;64513;56.258;43.980;2022-12-20T01:31:56;100332.46;;;1.18;60.76
75867;BME280;64513;56.258;43.980;2022-12-20T01:34:20;100336.67;;;1.19;60.72
75867;BME280;64513;56.258;43.980;2022-12-20T01:36:44;100338.08;;;1.21;60.85
75867;BME280;64513;56.258;43.980;2022-12-20T01:39:29;100342.09;;;1.24;60.88
75867;BME280;64513;56.258;43.980;2022-12-20T01:41:54;100336.45;;;1.27;60.93
75867;BME280;64513;56.258;43.980;2022-12-20T01:44:51;100339.66;;;1.29;60.97
75867;BME280;64513;56.258;43.980;2022-12-20T01:46:47;100336.06;;;1.30;61.01
75867;BME280;64513;56.258;43.980;2022-12-20T01:52:18;100340.88;;;1.33;61.06
75867;BME280;64513;56.258;43.980;2022-12-20T02:00:32;100348.90;;;1.38;61.28
75867;BME280;64513;56.258;43.980;2022-12-20T02:03:17;100355.71;;;1.39;61.33
75867;BME280;64513;56.258;43.980;2022-12-20T02:05:43;100357.31;;;1.40;61.42
75867;BME280;64513;56.258;43.980;2022-12-20T02:08:09;100347.47;;;1.42;61.49
75867;BME280;64513;56.258;43.980;2022-12-20T02:16:27;100353.69;;;1.54;61.57
75867;BME280;64513;56.258;43.980;2022-12-20T02:31:12;100347.65;;;1.60;61.95
75867;BME280;64513;56.258;43.980;2022-12-20T02:33:40;100351.06;;;1.61;62.04
75867;BME280;64513;56.258;43.980;2022-12-20T02:36:06;100350.05;;;1.62;62.07
75867;BME280;64513;56.258;43.980;2022-12-20T02:38:34;100359.28;;;1.64;62.22
75867;BME280;64513;56.258;43.980;2022-12-20T02:43:46;100350.86;;;1.69;62.28
75867;BME280;64513;56.258;43.980;2022-12-20T02:46:32;100350.45;;;1.72;62.17
75867;BME280;64513;56.258;43.980;2022-12-20T02:49:00;100355.23;;;1.75;62.16
75867;BME280;64513;56.258;43.980;2022-12-20T02:51:26;100350.83;;;1.75;62.19
75867;BME280;64513;56.258;43.980;2022-12-20T02:53:52;100352.03;;;1.80;62.26
75867;BME280;64513;56.258;43.980;2022-12-20T03:02:06;100361.66;;;1.86;62.18
75867;BME280;64513;56.258;43.980;2022-12-20T03:04:33;100359.25;;;1.84;62.29
75867;BME280;64513;56.258;43.980;2022-12-20T03:07:18;100356.44;;;1.86;62.33
75867;BME280;64513;56.258;43.980;2022-12-20T03:09:44;100364.86;;;1.88;62.38
75867;BME280;64513;56.258;43.980;2022-12-20T03:12:10;100361.25;;;1.89;62.41
75867;BME280;64513;56.258;43.980;2022-12-20T03:14:34;100362.83;;;1.90;62.48
75867;BME280;64513;56.258;43.980;2022-12-20T03:16:58;100357.61;;;1.90;62.50
75867;BME280;64513;56.258;43.980;2022-12-20T03:19:23;100358.41;;;1.90;62.52
75867;BME280;64513;56.258;43.980;2022-12-20T03:21:47;100354.80;;;1.91;62.50
75867;BME280;64513;56.258;43.980;2022-12-20T03:24:11;100357.20;;;1.93;62.51
75867;BME280;64513;56.258;43.980;2022-12-20T03:26:37;100355.20;;;1.95;62.52
75867;BME280;64513;56.258;43.980;2022-12-20T03:29:01;100350.78;;;1.95;62.42
75867;BME280;64513;56.258;43.980;2022-12-20T03:31:25;100353.19;;;1.97;62.44
75867;BME280;64513;56.258;43.980;2022-12-20T03:33:49;100359.00;;;1.99;62.38
75867;BME280;64513;56.258;43.980;2022-12-20T03:36:14;100347.56;;;2.00;62.37
75867;BME280;64513;56.258;43.980;2022-12-20T03:38:39;100344.76;;;2.01;62.32
75867;BME280;64513;56.258;43.980;2022-12-20T03:41:04;100350.53;;;2.55;75.20
75867;BME280;64513;56.258;43.980;2022-12-20T03:43:28;100345.43;;;3.47;76.83
75867;BME280;64513;56.258;43.980;2022-12-20T03:45:52;100359.80;;;4.18;78.28
75867;BME280;64513;56.258;43.980;2022-12-20T03:48:16;100366.19;;;4.40;75.44
75867;BME280;64513;56.258;43.980;2022-12-20T03:50:40;100362.98;;;4.38;74.10
75867;BME280;64513;56.258;43.980;2022-12-20T03:53:05;100362.69;;;4.28;73.46
75867;BME280;64513;56.258;43.980;2022-12-20T03:55:29;100366.48;;;4.14;72.68
75867;BME280;64513;56.258;43.980;2022-12-20T03:57:53;100363.43;;;3.99;73.02
75867;BME280;64513;56.258;43.980;2022-12-20T04:00:18;100364.59;;;3.84;72.49
75867;BME280;64513;56.258;43.980;2022-12-20T04:02:42;100363.13;;;3.70;72.45
75867;BME280;64513;56.258;43.980;2022-12-20T04:05:07;100349.77;;;3.60;72.55
75867;BME280;64513;56.258;43.980;2022-12-20T04:07:31;100349.44;;;3.50;72.37
75867;BME280;64513;56.258;43.980;2022-12-20T04:09:55;100347.32;;;3.40;71.95
75867;BME280;64513;56.258;43.980;2022-12-20T04:12:19;100350.98;;;3.33;71.91
75867;BME280;64513;56.258;43.980;2022-12-20T04:14:44;100358.11;;;3.26;71.55
75867;BME280;64513;56.258;43.980;2022-12-20T04:17:08;100357.34;;;3.18;71.38
75867;BME280;64513;56.258;43.980;2022-12-20T04:19:32;100352.98;;;3.12;71.59
75867;BME280;64513;56.258;43.980;2022-12-20T04:21:56;100355.42;;;3.07;71.18
75867;BME280;64513;56.258;43.980;2022-12-20T04:24:20;100357.86;;;3.02;71.03
75867;BME280;64513;56.258;43.980;2022-12-20T04:26:45;100355.67;;;2.99;71.26
75867;BME280;64513;56.258;43.980;2022-12-20T04:29:09;100358.73;;;2.96;71.34
75867;BME280;64513;56.258;43.980;2022-12-20T04:31:34;100358.55;;;2.91;70.83
75867;BME280;64513;56.258;43.980;2022-12-20T04:33:58;100349.53;;;2.87;70.94
75867;BME280;64513;56.258;43.980;2022-12-20T04:36:22;100362.20;;;2.83;70.31
75867;BME280;64513;56.258;43.980;2022-12-20T04:38:46;100360.25;;;2.79;70.46
75867;BME280;64513;56.258;43.980;2022-12-20T04:41:10;100356.23;;;2.76;70.36
75867;BME280;64513;56.258;43.980;2022-12-20T04:43:36;100359.27;;;2.73;70.55
75867;BME280;64513;56.258;43.980;2022-12-20T04:46:00;100353.66;;;2.70;70.34
75867;BME280;64513;56.258;43.980;2022-12-20T04:48:26;100360.89;;;2.68;70.10
75867;BME280;64513;56.258;43.980;2022-12-20T04:50:51;100365.76;;;2.64;70.33
75867;BME280;64513;56.258;43.980;2022-12-20T04:53:16;100362.55;;;2.62;70.38
75867;BME280;64513;56.258;43.980;2022-12-20T04:56:00;100360.95;;;2.61;70.34
75867;BME280;64513;56.258;43.980;2022-12-20T04:58:24;100357.74;;;2.59;70.52
75867;BME280;64513;56.258;43.980;2022-12-20T05:00:49;100364.17;;;2.57;70.06
75867;BME280;64513;56.258;43.980;2022-12-20T05:03:13;100364.59;;;2.54;69.95
75867;BME280;64513;56.258;43.980;2022-12-20T05:05:37;100360.61;;;2.51;70.08
75867;BME280;64513;56.258;43.980;2022-12-20T05:08:01;100360.22;;;2.48;69.75
75867;BME280;64513;56.258;43.980;2022-12-20T05:10:26;100365.85;;;2.44;70.15
75867;BME280;64513;56.258;43.980;2022-12-20T05:12:50;100365.25;;;2.42;70.03
75867;BME280;64513;56.258;43.980;2022-12-20T05:15:14;100359.64;;;2.39;70.14
75867;BME280;64513;56.258;43.980;2022-12-20T05:17:38;100373.70;;;2.38;69.50
75867;BME280;64513;56.258;43.980;2022-12-20T05:20:04;100370.73;;;2.34;69.93
75867;BME280;64513;56.258;43.980;2022-12-20T05:22:28;100369.53;;;2.30;69.85
75867;BME280;64513;56.258;43.980;2022-12-20T05:25:12;100369.94;;;2.27;69.97
75867;BME280;64513;56.258;43.980;2022-12-20T05:27:56;100369.55;;;2.24;69.77
75867;BME280;64513;56.258;43.980;2022-12-20T05:30:21;100372.56;;;2.21;69.70
75867;BME280;64513;56.258;43.980;2022-12-20T05:32:45;100373.80;;;2.18;69.60
75867;BME280;64513;56.258;43.980;2022-12-20T05:35:09;100371.59;;;2.15;69.57
75867;BME280;64513;56.258;43.980;2022-12-20T05:37:34;100375.41;;;2.13;69.55
75867;BME280;64513;56.258;43.980;2022-12-20T05:39:58;100376.63;;;2.10;69.39
75867;BME280;64513;56.258;43.980;2022-12-20T05:42:22;100369.20;;;2.07;69.62
75867;BME280;64513;56.258;43.980;2022-12-20T05:44:46;100365.99;;;2.05;69.46
75867;BME280;64513;56.258;43.980;2022-12-20T05:47:10;100375.86;;;2.03;69.32
75867;BME280;64513;56.258;43.980;2022-12-20T05:49:34;100374.45;;;2.00;69.43
75867;BME280;64513;56.258;43.980;2022-12-20T05:51:59;100372.65;;;2.01;69.85
75867;BME280;64513;56.258;43.980;2022-12-20T05:54:24;100370.24;;;1.99;70.01
75867;BME280;64513;56.258;43.980;2022-12-20T05:56:48;100372.65;;;2.01;70.42
75867;BME280;64513;56.258;43.980;2022-12-20T05:59:12;100371.64;;;2.02;70.09
75867;BME280;64513;56.258;43.980;2022-12-20T06:01:38;100375.66;;;2.04;70.46
75867;BME280;64513;56.258;43.980;2022-12-20T06:04:02;100374.85;;;2.04;70.18
75867;BME280;64513;56.258;43.980;2022-12-20T06:06:26;100369.64;;;2.04;70.27
75867;BME280;64513;56.258;43.980;2022-12-20T06:08:50;100373.25;;;2.03;69.93
75867;BME280;64513;56.258;43.980;2022-12-20T06:11:16;100370.84;;;2.01;69.90
75867;BME280;64513;56.258;43.980;2022-12-20T06:13:40;100374.25;;;2.02;69.68
75867;BME280;64513;56.258;43.980;2022-12-20T06:16:05;100381.48;;;2.00;69.94
75867;BME280;64513;56.258;43.980;2022-12-20T06:18:29;100373.05;;;1.98;70.08
75867;BME280;64513;56.258;43.980;2022-12-20T06:20:53;100378.27;;;1.98;69.98
75867;BME280;64513;56.258;43.980;2022-12-20T06:23:18;100383.08;;;2.01;70.35
75867;BME280;64513;56.258;43.980;2022-12-20T06:25:42;100374.85;;;2.04;70.19
75867;BME280;64513;56.258;43.980;2022-12-20T06:28:06;100378.03;;;2.06;70.24
75867;BME280;64513;56.258;43.980;2022-12-20T06:30:30;100372.61;;;2.07;70.36
75867;BME280;64513;56.258;43.980;2022-12-20T06:32:55;100376.83;;;2.08;70.35
75867;BME280;64513;56.258;43.980;2022-12-20T06:35:19;100375.61;;;2.11;69.77
75867;BME280;64513;56.258;43.980;2022-12-20T06:37:44;100377.22;;;2.12;70.33
75867;BME280;64513;56.258;43.980;2022-12-20T06:40:09;100380.83;;;2.11;70.02
75867;BME280;64513;56.258;43.980;2022-12-20T06:42:33;100383.03;;;2.14;70.50
75867;BME280;64513;56.258;43.980;2022-12-20T06:44:57;100380.43;;;2.14;70.24
75867;BME280;64513;56.258;43.980;2022-12-20T06:47:22;100372.80;;;2.13;70.10
75867;BME280;64513;56.258;43.980;2022-12-20T06:49:46;100382.84;;;2.16;70.13
75867;BME280;64513;56.258;43.980;2022-12-20T06:52:10;100386.45;;;2.15;69.96
75867;BME280;64513;56.258;43.980;2022-12-20T06:54:34;100383.03;;;2.14;70.08
75867;BME280;64513;56.258;43.980;2022-12-20T06:56:58;100377.02;;;2.14;69.62
75867;BME280;64513;56.258;43.980;2022-12-20T06:59:22;100375.21;;;2.14;70.04
75867;BME280;64513;56.258;43.980;2022-12-20T07:01:47;100371.59;;;2.15;70.34
75867;BME280;64513;56.258;43.980;2022-12-20T07:04:11;100368.98;;;2.15;70.14
75867;BME280;64513;56.258;43.980;2022-12-20T07:06:35;100371.59;;;2.15;69.82
75867;BME280;64513;56.258;43.980;2022-12-20T07:08:59;100361.97;;;2.16;70.27
75867;BME280;64513;56.258;43.980;2022-12-20T07:11:24;100367.58;;;2.19;70.12
75867;BME280;64513;56.258;43.980;2022-12-20T07:13:48;100369.18;;;2.20;69.88
75867;BME280;64513;56.258;43.980;2022-12-20T07:16:12;100360.31;;;2.21;70.07
75867;BME280;64513;56.258;43.980;2022-12-20T07:18:37;100361.35;;;2.20;69.77
75867;BME280;64513;56.258;43.980;2022-12-20T07:21:02;100359.52;;;2.21;69.86
75867;BME280;64513;56.258;43.980;2022-12-20T07:23:27;100348.87;;;2.22;69.96
75867;BME280;64513;56.258;43.980;2022-12-20T07:26:12;100356.30;;;2.25;70.29
75867;BME280;64513;56.258;43.980;2022-12-20T07:28:36;100355.08;;;2.28;70.02
75867;BME280;64513;56.258;43.980;2022-12-20T07:31:02;100350.26;;;2.31;70.13
75867;BME280;64513;56.258;43.980;2022-12-20T07:33:26;100353.47;;;2.33;69.81
75867;BME280;64513;56.258;43.980;2022-12-20T07:35:50;100353.03;;;2.36;70.13
75867;BME280;64513;56.258;43.980;2022-12-20T07:38:14;100351.61;;;2.40;69.69
75867;BME280;64513;56.258;43.980;2022-12-20T07:40:40;100362.03;;;2.47;70.23
75867;BME280;64513;56.258;43.980;2022-12-20T07:43:05;100358.80;;;2.52;69.84
75867;BME280;64513;56.258;43.980;2022-12-20T07:45:29;100357.35;;;2.56;69.83
75867;BME280;64513;56.258;43.980;2022-12-20T07:47:54;100352.73;;;2.58;69.80
75867;BME280;64513;56.258;43.980;2022-12-20T07:50:18;100353.33;;;2.60;69.74
75867;BME280;64513;56.258;43.980;2022-12-20T07:52:44;100337.24;;;2.63;69.76
75867;BME280;64513;56.258;43.980;2022-12-20T07:55:10;100338.84;;;2.64;69.34
75867;BME280;64513;56.258;43.980;2022-12-20T07:58:09;100330.00;;;2.65;69.40
75867;BME280;64513;56.258;43.980;2022-12-20T08:00:03;100334.02;;;2.67;69.32
75867;BME280;64513;56.258;43.980;2022-12-20T08:02:31;100325.94;;;2.69;69.20
75867;BME280;64513;56.258;43.980;2022-12-20T08:04:56;100315.08;;;2.72;69.18
75867;BME280;64513;56.258;43.980;2022-12-20T08:07:20;100323.51;;;2.74;69.46
75867;BME280;64513;56.258;43.980;2022-12-20T08:09:45;100321.48;;;2.76;69.60
75867;BME280;64513;56.258;43.980;2022-12-20T08:12:11;100321.07;;;2.79;69.61
75867;BME280;64513;56.258;43.980;2022-12-20T08:14:36;100318.25;;;2.80;69.38
75867;BME280;64513;56.258;43.980;2022-12-20T08:17:01;100313.83;;;2.81;69.43
75867;BME280;64513;56.258;43.980;2022-12-20T08:19:25;100310.20;;;2.82;69.48
75867;BME280;64513;56.258;43.980;2022-12-20T08:21:49;100320.41;;;2.83;69.53
75867;BME280;64513;56.258;43.980;2022-12-20T08:24:15;100310.20;;;2.82;69.42
75867;BME280;64513;56.258;43.980;2022-12-20T08:26:40;100316.23;;;2.83;69.31
75867;BME280;64513;56.258;43.980;2022-12-20T08:29:04;100308.61;;;2.81;69.48
75867;BME280;64513;56.258;43.980;2022-12-20T08:31:29;100315.43;;;2.82;69.34
75867;BME280;64513;56.258;43.980;2022-12-20T08:33:53;100317.24;;;2.81;69.35
75867;BME280;64513;56.258;43.980;2022-12-20T08:36:18;100311.22;;;2.81;69.49
75867;BME280;64513;56.258;43.980;2022-12-20T08:38:42;100315.64;;;2.80;69.60
75867;BME280;64513;56.258;43.980;2022-12-20T08:41:09;100319.05;;;2.81;69.58
75867;BME280;64513;56.258;43.980;2022-12-20T08:43:33;100309.41;;;2.81;69.33
75867;BME280;64513;56.258;43.980;2022-12-20T08:45:58;100299.97;;;2.80;69.61
75867;BME280;64513;56.258;43.980;2022-12-20T08:48:22;100305.78;;;2.83;69.59
75867;BME280;64513;56.258;43.980;2022-12-20T08:50:47;100305.55;;;2.84;69.71
75867;BME280;64513;56.258;43.980;2022-12-20T08:53:12;100303.73;;;2.85;69.73
75867;BME280;64513;56.258;43.980;2022-12-20T08:55:37;100300.11;;;2.86;69.53
75867;BME280;64513;56.258;43.980;2022-12-20T08:58:01;100297.30;;;2.87;69.59
75867;BME280;64513;56.258;43.980;2022-12-20T09:00:25;100290.47;;;2.86;69.59
75867;BME280;64513;56.258;43.980;2022-12-20T09:02:49;100292.07;;;2.87;69.63
75867;BME280;64513;56.258;43.980;2022-12-20T09:05:15;100288.45;;;2.88;69.63
75867;BME280;64513;56.258;43.980;2022-12-20T09:07:39;100280.61;;;2.88;69.76
75867;BME280;64513;56.258;43.980;2022-12-20T09:10:03;100278.80;;;2.89;69.86
75867;BME280;64513;56.258;43.980;2022-12-20T09:12:28;100284.83;;;2.89;69.69
75867;BME280;64513;56.258;43.980;2022-12-20T09:14:52;100272.56;;;2.90;70.05
75867;BME280;64513;56.258;43.980;2022-12-20T09:17:16;100270.75;;;2.90;69.80
75867;BME280;64513;56.258;43.980;2022-12-20T09:19:40;100276.78;;;2.91;69.91
75867;BME280;64513;56.258;43.980;2022-12-20T09:22:04;100269.74;;;2.91;69.93
75867;BME280;64513;56.258;43.980;2022-12-20T09:24:29;100268.73;;;2.92;69.98
75867;BME280;64513;56.258;43.980;2022-12-20T09:26:53;100269.53;;;2.93;69.95
75867;BME280;64513;56.258;43.980;2022-12-20T09:29:17;100270.33;;;2.93;69.85
75867;BME280;64513;56.258;43.980;2022-12-20T09:31:42;100260.69;;;2.94;69.78
75867;BME280;64513;56.258;43.980;2022-12-20T09:34:06;100257.86;;;2.95;69.92
75867;BME280;64513;56.258;43.980;2022-12-20T09:36:30;100258.66;;;2.96;70.08
75867;BME280;64513;56.258;43.980;2022-12-20T09:38:55;100260.27;;;2.97;70.25
75867;BME280;64513;56.258;43.980;2022-12-20T09:41:40;100251.41;;;2.98;70.01
75867;BME280;64513;56.258;43.980;2022-12-20T09:47:29;100250.61;;;2.97;70.14
75867;BME280;64513;56.258;43.980;2022-12-20T09:49:56;100249.02;;;2.96;70.21
75867;BME280;64513;56.258;43.980;2022-12-20T09:52:44;100247.20;;;2.97;70.41
75867;BME280;64513;56.258;43.980;2022-12-20T09:55:28;100251.63;;;2.96;70.52
75867;BME280;64513;56.258;43.980;2022-12-20T10:00:55;100236.54;;;2.98;70.23
75867;BME280;64513;56.258;43.980;2022-12-20T10:03:40;100232.89;;;2.99;70.44
75867;BME280;64513;56.258;43.980;2022-12-20T10:06:44;100230.27;;;2.99;70.37
75867;BME280;64513;56.258;43.980;2022-12-20T10:17:49;100213.37;;;3.02;70.62
75867;BME280;64513;56.258;43.980;2022-12-20T10:26:21;100197.91;;;3.00;70.66
75867;BME280;64513;56.258;43.980;2022-12-20T10:28:45;100197.11;;;3.00;70.65
75867;BME280;64513;56.258;43.980;2022-12-20T10:31:30;100203.14;;;3.00;70.96
75867;BME280;64513;56.258;43.980;2022-12-20T10:33:54;100193.48;;;3.01;70.93
75867;BME280;64513;56.258;43.980;2022-12-20T10:39:07;100187.03;;;3.03;70.73
75867;BME280;64513;56.258;43.980;2022-12-20T10:47:03;100184.80;;;3.07;70.82
75867;BME280;64513;56.258;43.980;2022-12-20T10:49:31;100174.56;;;3.05;71.09
75867;BME280;64513;56.258;43.980;2022-12-20T10:52:16;100175.95;;;3.08;71.18
75867;BME280;64513;56.258;43.980;2022-12-20T10:57:28;100166.88;;;3.10;71.08
75867;BME280;64513;56.258;43.980;2022-12-20T11:00:25;100152.00;;;3.11;71.19
75867;BME280;64513;56.258;43.980;2022-12-20T11:02:40;100149.17;;;3.12;71.20
75867;BME280;64513;56.258;43.980;2022-12-20T11:05:24;100152.80;;;3.11;71.00
75867;BME280;64513;56.258;43.980;2022-12-20T11:14:09;100155.20;;;3.13;71.27
75867;BME280;64513;56.258;43.980;2022-12-20T11:16:45;100148.16;;;3.13;71.56
75867;BME280;64513;56.258;43.980;2022-12-20T11:37:20;100121.45;;;3.11;71.11
75867;BME280;64513;56.258;43.980;2022-12-20T11:40:08;100116.44;;;3.10;71.48
75867;BME280;64513;56.258;43.980;2022-12-20T11:48:43;100105.19;;;3.09;71.24
75867;BME280;64513;56.258;43.980;2022-12-20T11:54:33;100113.02;;;3.09;71.25
75867;BME280;64513;56.258;43.980;2022-12-20T12:00:03;100099.59;;;3.06;71.10
75867;BME280;64513;56.258;43.980;2022-12-20T12:06:23;100099.01;;;3.04;71.14
75867;BME280;64513;56.258;43.980;2022-12-20T12:09:14;100098.20;;;3.03;71.08
75867;BME280;64513;56.258;43.980;2022-12-20T12:11:39;100079.92;;;3.03;70.92
75867;BME280;64513;56.258;43.980;2022-12-20T12:13:34;100081.73;;;3.03;70.43
75867;BME280;64513;56.258;43.980;2022-12-20T12:19:02;100084.34;;;3.03;70.77
75867;BME280;64513;56.258;43.980;2022-12-20T12:27:37;100058.44;;;3.01;70.77
75867;BME280;64513;56.258;43.980;2022-12-20T12:30:01;100074.58;;;2.98;70.72
75867;BME280;64513;56.258;43.980;2022-12-20T12:50:35;100066.44;;;2.88;70.65
75867;BME280;64513;56.258;43.980;2022-12-20T12:55:47;100062.90;;;2.83;70.85
75867;BME280;64513;56.258;43.980;2022-12-20T12:58:32;100062.90;;;2.83;70.68
75867;BME280;64513;56.258;43.980;2022-12-20T13:01:45;100064.72;;;2.82;70.74
75867;BME280;64513;56.258;43.980;2022-12-20T13:09:35;100051.66;;;2.82;70.85
75867;BME280;64513;56.258;43.980;2022-12-20T13:12:45;100048.25;;;2.81;70.99
75867;BME280;64513;56.258;43.980;2022-12-20T13:22:26;100022.47;;;2.85;71.44
75867;BME280;64513;56.258;43.980;2022-12-20T13:33:48;100030.52;;;2.83;71.05
75867;BME280;64513;56.258;43.980;2022-12-20T13:39:00;100022.92;;;2.82;70.91
75867;BME280;64513;56.258;43.980;2022-12-20T13:41:46;100017.13;;;2.80;71.02
75867;BME280;64513;56.258;43.980;2022-12-20T13:44:33;100021.33;;;2.81;70.86
75867;BME280;64513;56.258;43.980;2022-12-20T13:49:43;100010.88;;;2.81;70.98
75867;BME280;64513;56.258;43.980;2022-12-20T13:52:29;100009.29;;;2.80;70.75
75867;BME280;64513;56.258;43.980;2022-12-20T13:55:30;100007.69;;;2.79;70.71
75867;BME280;64513;56.258;43.980;2022-12-20T13:57:25;100002.47;;;2.79;70.89
75867;BME280;64513;56.258;43.980;2022-12-20T13:59:50;100005.08;;;2.79;70.97
75867;BME280;64513;56.258;43.980;2022-12-20T14:02:35;99995.43;;;2.79;70.76
75867;BME280;64513;56.258;43.980;2022-12-20T14:05:03;100003.05;;;2.81;70.86
75867;BME280;64513;56.258;43.980;2022-12-20T14:07:31;99994.41;;;2.80;70.96
75867;BME280;64513;56.258;43.980;2022-12-20T14:09:59;99987.59;;;2.79;70.92
75867;BME280;64513;56.258;43.980;2022-12-20T14:12:24;99989.99;;;2.81;70.67
75867;BME280;64513;56.258;43.980;2022-12-20T14:14:50;99989.20;;;2.80;70.69
75867;BME280;64513;56.258;43.980;2022-12-20T14:20:04;99992.39;;;2.83;70.82
75867;BME280;64513;56.258;43.980;2022-12-20T14:22:28;99985.56;;;2.81;70.72
75867;BME280;64513;56.258;43.980;2022-12-20T14:24:53;99988.98;;;2.82;70.69
75867;BME280;64513;56.258;43.980;2022-12-20T14:27:18;99977.73;;;2.81;70.80
75867;BME280;64513;56.258;43.980;2022-12-20T14:29:44;99979.55;;;2.81;70.72
75867;BME280;64513;56.258;43.980;2022-12-20T14:32:16;99981.14;;;2.82;70.60
75867;BME280;64513;56.258;43.980;2022-12-20T14:34:38;99980.34;;;2.81;70.70
75867;BME280;64513;56.258;43.980;2022-12-20T14:40:28;99975.92;;;2.82;70.77
75867;BME280;64513;56.258;43.980;2022-12-20T14:42:52;99974.32;;;2.81;70.65
75867;BME280;64513;56.258;43.980;2022-12-20T14:45:19;99972.73;;;2.80;70.68
75867;BME280;64513;56.258;43.980;2022-12-20T14:48:04;99970.11;;;2.80;70.66
75867;BME280;64513;56.258;43.980;2022-12-20T14:50:34;99975.34;;;2.80;70.59
75867;BME280;64513;56.258;43.980;2022-12-20T14:52:57;99973.52;;;2.80;70.34
75867;BME280;64513;56.258;43.980;2022-12-20T14:55:44;99975.55;;;2.78;70.41
75867;BME280;64513;56.258;43.980;2022-12-20T14:58:30;99969.53;;;2.78;70.52
75867;BME280;64513;56.258;43.980;2022-12-20T15:04:01;99959.89;;;2.78;70.57
75867;BME280;64513;56.258;43.980;2022-12-20T15:06:45;99962.72;;;2.77;70.71
75867;BME280;64513;56.258;43.980;2022-12-20T15:09:09;99957.49;;;2.77;70.47
75867;BME280;64513;56.258;43.980;2022-12-20T15:11:36;99955.10;;;2.75;70.34
75867;BME280;64513;56.258;43.980;2022-12-20T15:14:01;99948.06;;;2.76;70.34
75867;BME280;64513;56.258;43.980;2022-12-20T15:16:27;99952.27;;;2.77;70.25
75867;BME280;64513;56.258;43.980;2022-12-20T15:19:12;99942.63;;;2.77;70.35
75867;BME280;64513;56.258;43.980;2022-12-20T15:22:15;99949.22;;;2.80;70.31
75867;BME280;64513;56.258;43.980;2022-12-20T15:24:08;99947.41;;;2.80;70.34
75867;BME280;64513;56.258;43.980;2022-12-20T15:26:31;99948.21;;;2.81;70.40
75867;BME280;64513;56.258;43.980;2022-12-20T15:28:55;99950.81;;;2.81;70.19
75867;BME280;64513;56.258;43.980;2022-12-20T15:31:21;99944.58;;;2.82;69.91
75867;BME280;64513;56.258;43.980;2022-12-20T15:33:46;99954.02;;;2.83;70.00
75867;BME280;64513;56.258;43.980;2022-12-20T15:36:31;99948.79;;;2.83;70.16
75867;BME280;64513;56.258;43.980;2022-12-20T15:38:57;99943.56;;;2.83;70.07
75867;BME280;64513;56.258;43.980;2022-12-20T15:41:42;99945.13;;;2.84;69.93
75867;BME280;64513;56.258;43.980;2022-12-20T15:46:52;99937.55;;;2.83;69.59
75867;BME280;64513;56.258;43.980;2022-12-20T15:49:20;99934.14;;;2.82;69.87
75867;BME280;64513;56.258;43.980;2022-12-20T15:51:46;99936.17;;;2.80;69.78